sensor_id;sensor_type;location;lat;lon;timestamp;pressure;altitude;pressure_sealevel;temperature
24201;BMP280;2801;50.972;7.856;2024-01-15T00:00:42;96154.53;;;1.06
24201;BMP280;2801;50.972;7.856;2024-01-15T00:03:09;96147.31;;;1.11
24201;BMP280;2801;50.972;7.856;2024-01-15T00:05:37;96137.84;;;1.10
24201;BMP280;2801;50.972;7.856;2024-01-15T00:08:05;96143.13;;;1.10
24201;BMP280;2801;50.972;7.856;2024-01-15T00:10:32;96134.00;;;1.16
24201;BMP280;2801;50.972;7.856;2024-01-15T00:12:59;96141.91;;;1.16
24201;BMP280;2801;50.972;7.856;2024-01-15T00:15:26;96139.28;;;1.16
24201;BMP280;2801;50.972;7.856;2024-01-15T00:17:55;96130.31;;;1.17
24201;BMP280;2801;50.972;7.856;2024-01-15T00:20:23;96118.16;;;1.16
24201;BMP280;2801;50.972;7.856;2024-01-15T00:22:52;96120.44;;;1.23
24201;BMP280;2801;50.972;7.856;2024-01-15T00:25:19;96118.38;;;1.20
24201;BMP280;2801;50.972;7.856;2024-01-15T00:27:46;96114.66;;;1.21
24201;BMP280;2801;50.972;7.856;2024-01-15T00:30:14;96110.94;;;1.22
24201;BMP280;2801;50.972;7.856;2024-01-15T00:32:41;96111.72;;;1.22
24201;BMP280;2801;50.972;7.856;2024-01-15T00:35:08;96113.56;;;1.22
24201;BMP280;2801;50.972;7.856;2024-01-15T00:37:35;96110.16;;;1.21
24201;BMP280;2801;50.972;7.856;2024-01-15T00:40:04;96117.00;;;1.22
24201;BMP280;2801;50.972;7.856;2024-01-15T00:42:31;96105.34;;;1.23
24201;BMP280;2801;50.972;7.856;2024-01-15T00:44:58;96103.97;;;1.26
24201;BMP280;2801;50.972;7.856;2024-01-15T00:47:26;96098.69;;;1.26
24201;BMP280;2801;50.972;7.856;2024-01-15T00:49:53;96102.72;;;1.23
24201;BMP280;2801;50.972;7.856;2024-01-15T00:52:20;96098.69;;;1.26
24201;BMP280;2801;50.972;7.856;2024-01-15T00:54:47;96097.72;;;1.22
24201;BMP280;2801;50.972;7.856;2024-01-15T00:57:14;96091.69;;;1.21
24201;BMP280;2801;50.972;7.856;2024-01-15T00:59:41;96096.06;;;1.26
24201;BMP280;2801;50.972;7.856;2024-01-15T01:02:08;96097.63;;;1.27
24201;BMP280;2801;50.972;7.856;2024-01-15T01:04:35;96092.75;;;1.20
24201;BMP280;2801;50.972;7.856;2024-01-15T01:07:03;96102.72;;;1.23
24201;BMP280;2801;50.972;7.856;2024-01-15T01:09:30;96095.28;;;1.25
24201;BMP280;2801;50.972;7.856;2024-01-15T01:11:57;96098.22;;;1.24
24201;BMP280;2801;50.972;7.856;2024-01-15T01:14:24;96102.91;;;1.27
24201;BMP280;2801;50.972;7.856;2024-01-15T01:16:51;96097.44;;;1.23
24201;BMP280;2801;50.972;7.856;2024-01-15T01:19:18;96098.22;;;1.24
24201;BMP280;2801;50.972;7.856;2024-01-15T01:21:46;96103.69;;;1.27
24201;BMP280;2801;50.972;7.856;2024-01-15T01:24:13;96095.09;;;1.22
24201;BMP280;2801;50.972;7.856;2024-01-15T01:26:40;96096.34;;;1.24
24201;BMP280;2801;50.972;7.856;2024-01-15T01:29:08;96095.88;;;1.22
24201;BMP280;2801;50.972;7.856;2024-01-15T01:31:35;96094.03;;;1.23
24201;BMP280;2801;50.972;7.856;2024-01-15T01:34:02;96092.38;;;1.27
24201;BMP280;2801;50.972;7.856;2024-01-15T01:36:31;96102.72;;;1.23
24201;BMP280;2801;50.972;7.856;2024-01-15T01:38:59;96095.88;;;1.22
24201;BMP280;2801;50.972;7.856;2024-01-15T01:41:26;96095.88;;;1.22
24201;BMP280;2801;50.972;7.856;2024-01-15T01:43:53;96101.75;;;1.19
24201;BMP280;2801;50.972;7.856;2024-01-15T01:46:20;96102.31;;;1.16
24201;BMP280;2801;50.972;7.856;2024-01-15T01:48:47;96099.59;;;1.21
24201;BMP280;2801;50.972;7.856;2024-01-15T01:51:15;96095.09;;;1.22
24201;BMP280;2801;50.972;7.856;2024-01-15T01:53:44;96080.44;;;1.16
24201;BMP280;2801;50.972;7.856;2024-01-15T01:56:14;96070.97;;;1.15
24201;BMP280;2801;50.972;7.856;2024-01-15T01:58:42;96087.28;;;1.17
24201;BMP280;2801;50.972;7.856;2024-01-15T02:01:10;96084.81;;;1.20
24201;BMP280;2801;50.972;7.856;2024-01-15T02:03:38;96084.81;;;1.20
24201;BMP280;2801;50.972;7.856;2024-01-15T02:06:07;96082.97;;;1.21
24201;BMP280;2801;50.972;7.856;2024-01-15T02:08:35;96090.31;;;1.24
24201;BMP280;2801;50.972;7.856;2024-01-15T02:11:03;96087.38;;;1.25
24201;BMP280;2801;50.972;7.856;2024-01-15T02:13:30;96083.16;;;1.24
24201;BMP280;2801;50.972;7.856;2024-01-15T02:15:57;96086.88;;;1.23
24201;BMP280;2801;50.972;7.856;2024-01-15T02:18:24;96093.53;;;1.21
24201;BMP280;2801;50.972;7.856;2024-01-15T02:20:52;96089.34;;;1.20
24201;BMP280;2801;50.972;7.856;2024-01-15T02:23:18;96086.41;;;1.21
24201;BMP280;2801;50.972;7.856;2024-01-15T02:25:47;96100.56;;;1.25
24201;BMP280;2801;50.972;7.856;2024-01-15T02:28:17;96095.97;;;1.31
24201;BMP280;2801;50.972;7.856;2024-01-15T02:30:44;96096.56;;;1.28
24201;BMP280;2801;50.972;7.856;2024-01-15T02:33:12;96101.03;;;1.27
24201;BMP280;2801;50.972;7.856;2024-01-15T02:35:40;96111.19;;;1.34
24201;BMP280;2801;50.972;7.856;2024-01-15T02:38:08;96112.84;;;1.30
24201;BMP280;2801;50.972;7.856;2024-01-15T02:40:36;96108.38;;;1.30
24201;BMP280;2801;50.972;7.856;2024-01-15T02:43:04;96105.63;;;1.35
24201;BMP280;2801;50.972;7.856;2024-01-15T02:45:31;96113.84;;;1.34
24201;BMP280;2801;50.972;7.856;2024-01-15T02:47:58;96109.63;;;1.33
24201;BMP280;2801;50.972;7.856;2024-01-15T02:50:25;96110.13;;;1.35
24201;BMP280;2801;50.972;7.856;2024-01-15T02:52:52;96106.41;;;1.36
24201;BMP280;2801;50.972;7.856;2024-01-15T02:55:20;96111.50;;;1.32
24201;BMP280;2801;50.972;7.856;2024-01-15T02:57:47;96112.28;;;1.33
24201;BMP280;2801;50.972;7.856;2024-01-15T03:00:15;96104.47;;;1.28
24201;BMP280;2801;50.972;7.856;2024-01-15T03:02:44;96104.84;;;1.35
24201;BMP280;2801;50.972;7.856;2024-01-15T03:05:14;96102.50;;;1.33
24201;BMP280;2801;50.972;7.856;2024-01-15T03:07:42;96086.16;;;1.31
24201;BMP280;2801;50.972;7.856;2024-01-15T03:10:10;96095.34;;;1.34
24201;BMP280;2801;50.972;7.856;2024-01-15T03:12:36;96101.41;;;1.34
24201;BMP280;2801;50.972;7.856;2024-01-15T03:15:04;96106.91;;;1.38
24201;BMP280;2801;50.972;7.856;2024-01-15T03:17:31;96100.25;;;1.40
24201;BMP280;2801;50.972;7.856;2024-01-15T03:19:59;96105.03;;;1.38
24201;BMP280;2801;50.972;7.856;2024-01-15T03:22:26;96111.88;;;1.39
24201;BMP280;2801;50.972;7.856;2024-01-15T03:24:53;96113.75;;;1.39
24201;BMP280;2801;50.972;7.856;2024-01-15T03:27:20;96106.41;;;1.36
24201;BMP280;2801;50.972;7.856;2024-01-15T03:29:47;96101.00;;;1.41
24201;BMP280;2801;50.972;7.856;2024-01-15T03:32:14;96106.91;;;1.38
24201;BMP280;2801;50.972;7.856;2024-01-15T03:34:43;96102.09;;;1.40
24201;BMP280;2801;50.972;7.856;2024-01-15T03:37:10;96093.38;;;1.39
24201;BMP280;2801;50.972;7.856;2024-01-15T03:39:37;96096.53;;;1.41
24201;BMP280;2801;50.972;7.856;2024-01-15T03:42:04;96103.47;;;1.37
24201;BMP280;2801;50.972;7.856;2024-01-15T03:44:32;96106.91;;;1.38
24201;BMP280;2801;50.972;7.856;2024-01-15T03:46:58;96097.09;;;1.38
24201;BMP280;2801;50.972;7.856;2024-01-15T03:49:26;96100.63;;;1.34
24201;BMP280;2801;50.972;7.856;2024-01-15T03:51:53;96097.81;;;1.30
24201;BMP280;2801;50.972;7.856;2024-01-15T03:54:21;96101.25;;;1.31
24201;BMP280;2801;50.972;7.856;2024-01-15T03:56:48;96114.31;;;1.36
24201;BMP280;2801;50.972;7.856;2024-01-15T03:59:15;96116.19;;;1.35
24201;BMP280;2801;50.972;7.856;2024-01-15T04:01:49;96095.75;;;1.27
24201;BMP280;2801;50.972;7.856;2024-01-15T04:04:18;96097.34;;;1.28
24201;BMP280;2801;50.972;7.856;2024-01-15T04:06:46;96098.91;;;1.29
24201;BMP280;2801;50.972;7.856;2024-01-15T04:09:13;96100.34;;;1.35
24201;BMP280;2801;50.972;7.856;2024-01-15T04:11:41;96100.16;;;1.32
24201;BMP280;2801;50.972;7.856;2024-01-15T04:14:08;96104.06;;;1.34
24201;BMP280;2801;50.972;7.856;2024-01-15T04:16:37;96102.50;;;1.33
24201;BMP280;2801;50.972;7.856;2024-01-15T04:19:04;96098.31;;;1.32
24201;BMP280;2801;50.972;7.856;2024-01-15T04:21:31;96098.78;;;1.34
24201;BMP280;2801;50.972;7.856;2024-01-15T04:23:59;96100.94;;;1.32
24201;BMP280;2801;50.972;7.856;2024-01-15T04:26:26;96086.47;;;1.30
24201;BMP280;2801;50.972;7.856;2024-01-15T04:28:53;96081.38;;;1.33
24201;BMP280;2801;50.972;7.856;2024-01-15T04:31:25;96084.31;;;1.32
24201;BMP280;2801;50.972;7.856;2024-01-15T04:33:54;96073.19;;;1.35
24201;BMP280;2801;50.972;7.856;2024-01-15T04:36:21;96075.53;;;1.36
24201;BMP280;2801;50.972;7.856;2024-01-15T04:38:48;96069.75;;;1.34
24201;BMP280;2801;50.972;7.856;2024-01-15T04:41:16;96073.66;;;1.37
24201;BMP280;2801;50.972;7.856;2024-01-15T04:43:44;96072.88;;;1.36
24201;BMP280;2801;50.972;7.856;2024-01-15T04:46:11;96075.41;;;1.41
24201;BMP280;2801;50.972;7.856;2024-01-15T04:48:39;96071.22;;;1.40
24201;BMP280;2801;50.972;7.856;2024-01-15T04:51:08;96075.69;;;1.40
24201;BMP280;2801;50.972;7.856;2024-01-15T04:53:36;96069.31;;;1.41
24201;BMP280;2801;50.972;7.856;2024-01-15T04:56:03;96068.56;;;1.40
24201;BMP280;2801;50.972;7.856;2024-01-15T04:58:30;96053.63;;;1.36
24201;BMP280;2801;50.972;7.856;2024-01-15T05:00:57;96058.31;;;1.39
24201;BMP280;2801;50.972;7.856;2024-01-15T05:03:25;96053.50;;;1.41
24201;BMP280;2801;50.972;7.856;2024-01-15T05:05:52;96053.78;;;1.39
24201;BMP280;2801;50.972;7.856;2024-01-15T05:08:19;96056.78;;;1.46
24201;BMP280;2801;50.972;7.856;2024-01-15T05:10:47;96056.34;;;1.44
24201;BMP280;2801;50.972;7.856;2024-01-15T05:13:15;96053.50;;;1.41
24201;BMP280;2801;50.972;7.856;2024-01-15T05:15:42;96047.44;;;1.40
24201;BMP280;2801;50.972;7.856;2024-01-15T05:18:10;96039.63;;;1.35
24201;BMP280;2801;50.972;7.856;2024-01-15T05:20:37;96054.09;;;1.38
24201;BMP280;2801;50.972;7.856;2024-01-15T05:23:04;96048.81;;;1.38
24201;BMP280;2801;50.972;7.856;2024-01-15T05:25:31;96041.38;;;1.40
24201;BMP280;2801;50.972;7.856;2024-01-15T05:27:58;96041.38;;;1.40
24201;BMP280;2801;50.972;7.856;2024-01-15T05:30:25;96046.94;;;1.38
24201;BMP280;2801;50.972;7.856;2024-01-15T05:32:53;96036.69;;;1.37
24201;BMP280;2801;50.972;7.856;2024-01-15T05:35:20;96031.31;;;1.42
24201;BMP280;2801;50.972;7.856;2024-01-15T05:37:47;96036.88;;;1.40
24201;BMP280;2801;50.972;7.856;2024-01-15T05:40:15;96031.41;;;1.37
24201;BMP280;2801;50.972;7.856;2024-01-15T05:42:42;96035.00;;;1.41
24201;BMP280;2801;50.972;7.856;2024-01-15T05:45:09;96037.34;;;1.42
24201;BMP280;2801;50.972;7.856;2024-01-15T05:47:36;96033.63;;;1.43
24201;BMP280;2801;50.972;7.856;2024-01-15T05:50:04;96031.47;;;1.45
24201;BMP280;2801;50.972;7.856;2024-01-15T05:52:31;96030.97;;;1.43
24201;BMP280;2801;50.972;7.856;2024-01-15T05:54:59;96025.41;;;1.45
24201;BMP280;2801;50.972;7.856;2024-01-15T05:57:25;96027.88;;;1.41
24201;BMP280;2801;50.972;7.856;2024-01-15T05:59:53;96029.44;;;1.42
24201;BMP280;2801;50.972;7.856;2024-01-15T06:02:21;96024.66;;;1.44
24201;BMP280;2801;50.972;7.856;2024-01-15T06:04:48;96029.72;;;1.41
24201;BMP280;2801;50.972;7.856;2024-01-15T06:07:16;96022.91;;;1.40
24201;BMP280;2801;50.972;7.856;2024-01-15T06:09:43;96031.59;;;1.40
24201;BMP280;2801;50.972;7.856;2024-01-15T06:12:11;96026.63;;;1.39
24201;BMP280;2801;50.972;7.856;2024-01-15T06:14:38;96021.34;;;1.39
24201;BMP280;2801;50.972;7.856;2024-01-15T06:17:05;96026.31;;;1.40
24201;BMP280;2801;50.972;7.856;2024-01-15T06:19:32;96016.53;;;1.41
24201;BMP280;2801;50.972;7.856;2024-01-15T06:22:00;96013.50;;;1.47
24201;BMP280;2801;50.972;7.856;2024-01-15T06:24:27;96015.81;;;1.49
24201;BMP280;2801;50.972;7.856;2024-01-15T06:26:54;96020.91;;;1.45
24201;BMP280;2801;50.972;7.856;2024-01-15T06:29:21;96016.44;;;1.46
24201;BMP280;2801;50.972;7.856;2024-01-15T06:31:48;96008.00;;;1.44
24201;BMP280;2801;50.972;7.856;2024-01-15T06:34:15;96006.16;;;1.44
24201;BMP280;2801;50.972;7.856;2024-01-15T06:36:43;96025.13;;;1.46
24201;BMP280;2801;50.972;7.856;2024-01-15T06:39:10;96001.66;;;1.45
24201;BMP280;2801;50.972;7.856;2024-01-15T06:41:38;96007.72;;;1.45
24201;BMP280;2801;50.972;7.856;2024-01-15T06:44:11;96007.72;;;1.45
24201;BMP280;2801;50.972;7.856;2024-01-15T06:46:48;95997.66;;;1.47
24201;BMP280;2801;50.972;7.856;2024-01-15T06:49:15;96005.25;;;1.49
24201;BMP280;2801;50.972;7.856;2024-01-15T06:51:42;96002.00;;;1.52
24201;BMP280;2801;50.972;7.856;2024-01-15T06:54:13;96000.94;;;1.53
24201;BMP280;2801;50.972;7.856;2024-01-15T06:56:40;96005.25;;;1.49
24201;BMP280;2801;50.972;7.856;2024-01-15T06:59:07;95998.91;;;1.50
24201;BMP280;2801;50.972;7.856;2024-01-15T07:01:34;96001.56;;;1.50
24201;BMP280;2801;50.972;7.856;2024-01-15T07:04:02;96010.72;;;1.52
24201;BMP280;2801;50.972;7.856;2024-01-15T07:06:30;96007.28;;;1.52
24201;BMP280;2801;50.972;7.856;2024-01-15T07:08:58;96003.88;;;1.51
24201;BMP280;2801;50.972;7.856;2024-01-15T07:11:25;96009.34;;;1.55
24201;BMP280;2801;50.972;7.856;2024-01-15T07:13:52;96003.88;;;1.51
24201;BMP280;2801;50.972;7.856;2024-01-15T07:16:20;96016.78;;;1.53
24201;BMP280;2801;50.972;7.856;2024-01-15T07:19:03;95996.94;;;1.55
24201;BMP280;2801;50.972;7.856;2024-01-15T07:21:30;96004.56;;;1.57
24201;BMP280;2801;50.972;7.856;2024-01-15T07:23:57;96000.31;;;1.56
24201;BMP280;2801;50.972;7.856;2024-01-15T07:26:25;95996.94;;;1.55
24201;BMP280;2801;50.972;7.856;2024-01-15T07:28:52;95999.06;;;1.53
24201;BMP280;2801;50.972;7.856;2024-01-15T07:31:20;96004.47;;;1.48
24201;BMP280;2801;50.972;7.856;2024-01-15T07:33:50;96006.88;;;1.58
24201;BMP280;2801;50.972;7.856;2024-01-15T07:36:17;95998.78;;;1.55
24201;BMP280;2801;50.972;7.856;2024-01-15T07:38:44;95994.59;;;1.54
24201;BMP280;2801;50.972;7.856;2024-01-15T07:41:13;96000.03;;;1.57
24201;BMP280;2801;50.972;7.856;2024-01-15T07:43:42;95999.56;;;1.55
24201;BMP280;2801;50.972;7.856;2024-01-15T07:46:09;95996.44;;;1.53
24201;BMP280;2801;50.972;7.856;2024-01-15T07:48:36;95999.28;;;1.57
24201;BMP280;2801;50.972;7.856;2024-01-15T07:51:03;95999.44;;;1.60
24201;BMP280;2801;50.972;7.856;2024-01-15T07:53:31;95998.94;;;1.58
24201;BMP280;2801;50.972;7.856;2024-01-15T07:55:58;95994.44;;;1.59
24201;BMP280;2801;50.972;7.856;2024-01-15T07:58:25;95999.44;;;1.60
24201;BMP280;2801;50.972;7.856;2024-01-15T08:00:52;95989.47;;;1.57
24201;BMP280;2801;50.972;7.856;2024-01-15T08:03:20;95988.75;;;1.65
24201;BMP280;2801;50.972;7.856;2024-01-15T08:05:47;95994.03;;;1.65
24201;BMP280;2801;50.972;7.856;2024-01-15T08:08:14;95991.28;;;1.70
24201;BMP280;2801;50.972;7.856;2024-01-15T08:10:41;95993.94;;;1.79
24201;BMP280;2801;50.972;7.856;2024-01-15T08:13:08;95990.41;;;1.83
24201;BMP280;2801;50.972;7.856;2024-01-15T08:15:36;95991.38;;;1.87
24201;BMP280;2801;50.972;7.856;2024-01-15T08:18:03;95987.31;;;1.90
24201;BMP280;2801;50.972;7.856;2024-01-15T08:20:31;95991.38;;;1.87
24201;BMP280;2801;50.972;7.856;2024-01-15T08:22:58;95985.47;;;1.90
24201;BMP280;2801;50.972;7.856;2024-01-15T08:25:25;95985.47;;;1.90
24201;BMP280;2801;50.972;7.856;2024-01-15T08:27:52;95982.53;;;1.92
24201;BMP280;2801;50.972;7.856;2024-01-15T08:30:19;95979.09;;;1.91
24201;BMP280;2801;50.972;7.856;2024-01-15T08:32:48;95973.06;;;1.91
24201;BMP280;2801;50.972;7.856;2024-01-15T08:35:15;95969.91;;;1.89
24201;BMP280;2801;50.972;7.856;2024-01-15T08:37:42;95970.13;;;1.92
24201;BMP280;2801;50.972;7.856;2024-01-15T08:40:10;95974.00;;;1.95
24201;BMP280;2801;50.972;7.856;2024-01-15T08:42:38;95969.03;;;1.93
24201;BMP280;2801;50.972;7.856;2024-01-15T08:45:05;95970.72;;;1.89
24201;BMP280;2801;50.972;7.856;2024-01-15T08:47:32;95971.06;;;1.96
24201;BMP280;2801;50.972;7.856;2024-01-15T08:50:00;95970.28;;;1.96
24201;BMP280;2801;50.972;7.856;2024-01-15T08:52:28;95962.34;;;1.96
24201;BMP280;2801;50.972;7.856;2024-01-15T08:54:57;95966.19;;;1.90
24201;BMP280;2801;50.972;7.856;2024-01-15T08:57:24;95968.72;;;1.95
24201;BMP280;2801;50.972;7.856;2024-01-15T08:59:51;95967.13;;;1.94
24201;BMP280;2801;50.972;7.856;2024-01-15T09:02:21;95960.34;;;2.01
24201;BMP280;2801;50.972;7.856;2024-01-15T09:04:48;95971.38;;;2.03
24201;BMP280;2801;50.972;7.856;2024-01-15T09:07:15;95966.59;;;2.05
24201;BMP280;2801;50.972;7.856;2024-01-15T09:09:43;95972.22;;;2.12
24201;BMP280;2801;50.972;7.856;2024-01-15T09:12:10;95969.88;;;2.11
24201;BMP280;2801;50.972;7.856;2024-01-15T09:14:37;95966.78;;;2.17
24201;BMP280;2801;50.972;7.856;2024-01-15T09:17:06;95975.81;;;2.16
24201;BMP280;2801;50.972;7.856;2024-01-15T09:19:33;95971.63;;;2.15
24201;BMP280;2801;50.972;7.856;2024-01-15T09:22:01;95973.78;;;2.13
24201;BMP280;2801;50.972;7.856;2024-01-15T09:24:28;95975.94;;;2.11
24201;BMP280;2801;50.972;7.856;2024-01-15T09:26:56;95970.19;;;2.09
24201;BMP280;2801;50.972;7.856;2024-01-15T09:29:23;95973.72;;;2.05
24201;BMP280;2801;50.972;7.856;2024-01-15T09:31:55;95981.53;;;2.10
24201;BMP280;2801;50.972;7.856;2024-01-15T09:34:22;95984.94;;;2.10
24201;BMP280;2801;50.972;7.856;2024-01-15T09:36:50;95982.78;;;2.12
24201;BMP280;2801;50.972;7.856;2024-01-15T09:39:17;95992.56;;;2.12
24201;BMP280;2801;50.972;7.856;2024-01-15T09:41:45;95984.63;;;2.12
24201;BMP280;2801;50.972;7.856;2024-01-15T09:44:13;95966.75;;;2.09
24201;BMP280;2801;50.972;7.856;2024-01-15T09:46:41;95985.13;;;2.14
24201;BMP280;2801;50.972;7.856;2024-01-15T09:49:10;95981.41;;;2.15
24201;BMP280;2801;50.972;7.856;2024-01-15T09:51:39;95979.84;;;2.14
24201;BMP280;2801;50.972;7.856;2024-01-15T09:54:07;95976.72;;;2.12
24201;BMP280;2801;50.972;7.856;2024-01-15T09:56:35;95984.34;;;2.13
24201;BMP280;2801;50.972;7.856;2024-01-15T09:59:03;95969.38;;;2.09
24201;BMP280;2801;50.972;7.856;2024-01-15T10:01:36;95978.25;;;2.13
24201;BMP280;2801;50.972;7.856;2024-01-15T10:04:03;95975.63;;;2.13
24201;BMP280;2801;50.972;7.856;2024-01-15T10:06:31;95966.13;;;2.12
24201;BMP280;2801;50.972;7.856;2024-01-15T10:08:59;95973.91;;;2.08
24201;BMP280;2801;50.972;7.856;2024-01-15T10:11:27;95974.56;;;2.14
24201;BMP280;2801;50.972;7.856;2024-01-15T10:13:55;95964.75;;;2.14
24201;BMP280;2801;50.972;7.856;2024-01-15T10:16:24;95962.00;;;2.19
24201;BMP280;2801;50.972;7.856;2024-01-15T10:18:52;95964.63;;;2.19
24201;BMP280;2801;50.972;7.856;2024-01-15T10:21:19;95964.63;;;2.19
24201;BMP280;2801;50.972;7.856;2024-01-15T10:23:46;95964.94;;;2.18
24201;BMP280;2801;50.972;7.856;2024-01-15T10:26:14;95965.22;;;2.16
24201;BMP280;2801;50.972;7.856;2024-01-15T10:28:44;95957.44;;;2.11
24201;BMP280;2801;50.972;7.856;2024-01-15T10:31:12;95961.94;;;2.11
24201;BMP280;2801;50.972;7.856;2024-01-15T10:33:39;95959.00;;;2.12
24201;BMP280;2801;50.972;7.856;2024-01-15T10:36:10;95955.88;;;2.10
24201;BMP280;2801;50.972;7.856;2024-01-15T10:38:38;95955.91;;;2.19
24201;BMP280;2801;50.972;7.856;2024-01-15T10:41:05;95950.03;;;2.22
24201;BMP280;2801;50.972;7.856;2024-01-15T10:43:32;95954.72;;;2.33
24201;BMP280;2801;50.972;7.856;2024-01-15T10:46:02;95951.75;;;2.35
24201;BMP280;2801;50.972;7.856;2024-01-15T10:48:29;95954.28;;;2.40
24201;BMP280;2801;50.972;7.856;2024-01-15T10:50:58;95952.88;;;2.42
24201;BMP280;2801;50.972;7.856;2024-01-15T10:53:26;95953.50;;;2.39
24201;BMP280;2801;50.972;7.856;2024-01-15T10:55:53;95958.19;;;2.42
24201;BMP280;2801;50.972;7.856;2024-01-15T10:58:21;95952.88;;;2.42
24201;BMP280;2801;50.972;7.856;2024-01-15T11:00:50;95960.66;;;2.47
24201;BMP280;2801;50.972;7.856;2024-01-15T11:03:18;95955.38;;;2.47
24201;BMP280;2801;50.972;7.856;2024-01-15T11:05:45;95955.56;;;2.51
24201;BMP280;2801;50.972;7.856;2024-01-15T11:08:17;95960.50;;;2.52
24201;BMP280;2801;50.972;7.856;2024-01-15T11:10:52;95965.66;;;2.49
24201;BMP280;2801;50.972;7.856;2024-01-15T11:13:39;95962.41;;;2.52
24201;BMP280;2801;50.972;7.856;2024-01-15T11:16:09;95963.78;;;2.58
24201;BMP280;2801;50.972;7.856;2024-01-15T11:18:40;95950.91;;;2.65
24201;BMP280;2801;50.972;7.856;2024-01-15T11:26:45;95956.94;;;2.57
24201;BMP280;2801;50.972;7.856;2024-01-15T11:32:10;95953.97;;;2.41
24201;BMP280;2801;50.972;7.856;2024-01-15T11:34:59;95957.56;;;2.54
24201;BMP280;2801;50.972;7.856;2024-01-15T11:40:37;95965.53;;;2.62
24201;BMP280;2801;50.972;7.856;2024-01-15T11:43:06;95971.00;;;2.66
24201;BMP280;2801;50.972;7.856;2024-01-15T11:45:34;95959.78;;;2.69
24201;BMP280;2801;50.972;7.856;2024-01-15T11:48:13;95961.66;;;2.68
24201;BMP280;2801;50.972;7.856;2024-01-15T11:50:47;95951.66;;;2.57
24201;BMP280;2801;50.972;7.856;2024-01-15T11:53:37;95976.59;;;2.64
24201;BMP280;2801;50.972;7.856;2024-01-15T11:56:15;95975.31;;;2.62
24201;BMP280;2801;50.972;7.856;2024-01-15T11:58:46;95976.28;;;2.66
24201;BMP280;2801;50.972;7.856;2024-01-15T12:01:14;95974.25;;;2.71
24201;BMP280;2801;50.972;7.856;2024-01-15T12:03:41;95979.25;;;2.81
24201;BMP280;2801;50.972;7.856;2024-01-15T12:06:09;95986.75;;;2.79
24201;BMP280;2801;50.972;7.856;2024-01-15T12:08:37;95983.75;;;2.72
24201;BMP280;2801;50.972;7.856;2024-01-15T12:11:13;95984.53;;;2.64
24201;BMP280;2801;50.972;7.856;2024-01-15T12:13:41;95978.00;;;2.70
24201;BMP280;2801;50.972;7.856;2024-01-15T12:16:08;95977.53;;;2.77
24201;BMP280;2801;50.972;7.856;2024-01-15T12:18:35;95974.28;;;2.80
24201;BMP280;2801;50.972;7.856;2024-01-15T12:21:04;95988.88;;;2.69
24201;BMP280;2801;50.972;7.856;2024-01-15T12:23:31;95980.47;;;2.58
24201;BMP280;2801;50.972;7.856;2024-01-15T12:25:59;95977.34;;;2.56
24201;BMP280;2801;50.972;7.856;2024-01-15T12:28:27;95981.66;;;2.52
24201;BMP280;2801;50.972;7.856;2024-01-15T12:30:55;95986.97;;;2.52
24201;BMP280;2801;50.972;7.856;2024-01-15T12:33:23;95986.66;;;2.45
24201;BMP280;2801;50.972;7.856;2024-01-15T12:35:53;95990.38;;;2.44
24201;BMP280;2801;50.972;7.856;2024-01-15T12:38:20;95985.06;;;2.44
24201;BMP280;2801;50.972;7.856;2024-01-15T12:40:48;95983.53;;;2.43
24201;BMP280;2801;50.972;7.856;2024-01-15T12:43:15;95986.97;;;2.44
24201;BMP280;2801;50.972;7.856;2024-01-15T12:45:42;95983.06;;;2.41
24201;BMP280;2801;50.972;7.856;2024-01-15T12:48:10;95991.31;;;2.40
24201;BMP280;2801;50.972;7.856;2024-01-15T12:50:37;95993.59;;;2.33
24201;BMP280;2801;50.972;7.856;2024-01-15T12:53:04;95986.28;;;2.30
24201;BMP280;2801;50.972;7.856;2024-01-15T12:55:33;95987.19;;;2.25
24201;BMP280;2801;50.972;7.856;2024-01-15T12:58:01;95999.19;;;2.31
24201;BMP280;2801;50.972;7.856;2024-01-15T13:00:28;96001.84;;;2.31
24201;BMP280;2801;50.972;7.856;2024-01-15T13:02:57;96000.94;;;2.36
24201;BMP280;2801;50.972;7.856;2024-01-15T13:05:26;96007.31;;;2.43
24201;BMP280;2801;50.972;7.856;2024-01-15T13:07:54;96004.69;;;2.43
24201;BMP280;2801;50.972;7.856;2024-01-15T13:10:21;95987.38;;;2.37
24201;BMP280;2801;50.972;7.856;2024-01-15T13:12:52;96002.94;;;2.39
24201;BMP280;2801;50.972;7.856;2024-01-15T13:15:19;96004.94;;;2.33
24201;BMP280;2801;50.972;7.856;2024-01-15T13:17:46;95989.97;;;2.20
24201;BMP280;2801;50.972;7.856;2024-01-15T13:20:13;95996.06;;;2.21
24201;BMP280;2801;50.972;7.856;2024-01-15T13:22:40;95995.56;;;2.19
24201;BMP280;2801;50.972;7.856;2024-01-15T13:25:11;96008.63;;;2.15
24201;BMP280;2801;50.972;7.856;2024-01-15T13:27:39;96002.84;;;2.13
24201;BMP280;2801;50.972;7.856;2024-01-15T13:30:09;96007.81;;;2.15
24201;BMP280;2801;50.972;7.856;2024-01-15T13:32:37;95999.75;;;2.11
24201;BMP280;2801;50.972;7.856;2024-01-15T13:35:05;96010.31;;;2.11
24201;BMP280;2801;50.972;7.856;2024-01-15T13:37:34;96012.63;;;2.13
24201;BMP280;2801;50.972;7.856;2024-01-15T13:40:02;96014.31;;;2.09
24201;BMP280;2801;50.972;7.856;2024-01-15T13:42:30;96012.31;;;2.06
24201;BMP280;2801;50.972;7.856;2024-01-15T13:44:58;96013.38;;;2.05
24201;BMP280;2801;50.972;7.856;2024-01-15T13:47:25;96013.66;;;2.03
24201;BMP280;2801;50.972;7.856;2024-01-15T13:49:52;96014.97;;;2.14
24201;BMP280;2801;50.972;7.856;2024-01-15T13:52:19;96019.19;;;2.15
24201;BMP280;2801;50.972;7.856;2024-01-15T13:54:46;96030.06;;;2.14
24201;BMP280;2801;50.972;7.856;2024-01-15T13:57:17;96025.69;;;2.09
24201;BMP280;2801;50.972;7.856;2024-01-15T13:59:48;96024.22;;;2.03
24201;BMP280;2801;50.972;7.856;2024-01-15T14:02:16;96034.03;;;2.03
24201;BMP280;2801;50.972;7.856;2024-01-15T14:04:47;96020.84;;;2.03
24201;BMP280;2801;50.972;7.856;2024-01-15T14:07:16;96025.94;;;1.99
24201;BMP280;2801;50.972;7.856;2024-01-15T14:09:44;96032.34;;;2.07
24201;BMP280;2801;50.972;7.856;2024-01-15T14:12:11;96032.50;;;2.10
24201;BMP280;2801;50.972;7.856;2024-01-15T14:14:38;96036.41;;;2.13
24201;BMP280;2801;50.972;7.856;2024-01-15T14:17:07;96037.69;;;2.15
24201;BMP280;2801;50.972;7.856;2024-01-15T14:19:34;96032.50;;;2.02
24201;BMP280;2801;50.972;7.856;2024-01-15T14:22:02;96041.38;;;2.06
24201;BMP280;2801;50.972;7.856;2024-01-15T14:24:30;96052.84;;;2.01
24201;BMP280;2801;50.972;7.856;2024-01-15T14:26:57;96040.72;;;2.00
24201;BMP280;2801;50.972;7.856;2024-01-15T14:29:25;96049.25;;;1.97
24201;BMP280;2801;50.972;7.856;2024-01-15T14:31:53;96049.06;;;1.94
24201;BMP280;2801;50.972;7.856;2024-01-15T14:34:20;96049.38;;;1.92
24201;BMP280;2801;50.972;7.856;2024-01-15T14:36:51;96049.69;;;1.91
24201;BMP280;2801;50.972;7.856;2024-01-15T14:39:23;96052.63;;;1.89
24201;BMP280;2801;50.972;7.856;2024-01-15T14:41:50;96065.63;;;1.86
24201;BMP280;2801;50.972;7.856;2024-01-15T14:44:18;96063.13;;;1.81
24201;BMP280;2801;50.972;7.856;2024-01-15T14:46:46;96074.78;;;1.80
24201;BMP280;2801;50.972;7.856;2024-01-15T14:49:14;96063.28;;;1.84